createdAt,value
2023-05-22T00:00:16.581Z,85.60
2023-05-22T00:02:44.765Z,85.20
2023-05-22T00:05:14.149Z,85.40
2023-05-22T00:07:43.968Z,85.50
2023-05-22T00:10:12.333Z,85.00
2023-05-22T00:12:40.461Z,84.70
2023-05-22T00:15:09.559Z,83.90
2023-05-22T00:17:37.548Z,83.70
2023-05-22T00:20:07.871Z,83.60
2023-05-22T00:22:36.413Z,83.70
2023-05-22T00:25:07.108Z,83.70
2023-05-22T00:27:35.340Z,83.40
2023-05-22T00:30:03.700Z,82.90
2023-05-22T00:32:31.713Z,82.30
2023-05-22T00:34:59.728Z,82.30
2023-05-22T00:37:27.729Z,82.60
2023-05-22T00:39:55.841Z,82.60
2023-05-22T00:42:25.621Z,82.00
2023-05-22T00:44:53.639Z,82.30
2023-05-22T00:47:23.740Z,82.70
2023-05-22T00:49:51.916Z,82.30
2023-05-22T00:52:20.922Z,82.10
2023-05-22T00:54:51.388Z,82.20
2023-05-22T00:57:20.407Z,82.20
2023-05-22T00:59:50.228Z,82.60
2023-05-22T01:02:18.308Z,82.30
2023-05-22T01:04:48.535Z,82.50
2023-05-22T01:07:17.833Z,82.70
2023-05-22T01:09:46.136Z,82.90
2023-05-22T01:12:25.611Z,83.00
2023-05-22T01:15:01.061Z,83.30
2023-05-22T01:17:35.036Z,82.90
2023-05-22T01:20:14.484Z,82.90
2023-05-22T01:23:16.202Z,83.00
2023-05-22T01:26:14.020Z,83.50
2023-05-22T01:28:57.007Z,83.30
2023-05-22T01:31:28.535Z,83.10
2023-05-22T01:33:59.717Z,83.20
2023-05-22T01:36:32.066Z,83.70
2023-05-22T01:39:01.696Z,84.00
2023-05-22T01:41:30.778Z,84.50
2023-05-22T01:43:58.944Z,84.30
2023-05-22T01:46:29.156Z,84.10
2023-05-22T01:48:58.016Z,84.50
2023-05-22T01:51:34.629Z,84.80
2023-05-22T01:54:11.802Z,85.20
2023-05-22T01:56:49.509Z,84.90
2023-05-22T01:59:25.466Z,85.10
2023-05-22T02:01:56.561Z,85.50
2023-05-22T02:04:25.468Z,85.40
2023-05-22T02:06:54.840Z,85.80
2023-05-22T02:09:25.629Z,85.80
2023-05-22T02:11:53.720Z,85.60
2023-05-22T02:14:22.369Z,86.20
2023-05-22T02:16:50.738Z,86.40
2023-05-22T02:19:20.247Z,87.00
2023-05-22T02:21:48.282Z,87.00
2023-05-22T02:24:16.479Z,86.80
2023-05-22T02:26:44.656Z,87.40
2023-05-22T02:29:13.580Z,87.20
2023-05-22T02:31:41.751Z,87.60
2023-05-22T02:34:09.788Z,87.30
2023-05-22T02:36:39.816Z,87.30
2023-05-22T02:39:07.933Z,87.70
2023-05-22T02:41:35.933Z,88.40
2023-05-22T02:44:03.962Z,88.50
2023-05-22T02:46:32.087Z,89.20
2023-05-22T02:49:00.167Z,88.80
2023-05-22T02:51:28.137Z,88.90
2023-05-22T02:53:57.497Z,88.80
2023-05-22T02:56:27.853Z,89.10
2023-05-22T02:58:56.122Z,89.70
2023-05-22T03:01:26.494Z,90.00
2023-05-22T03:03:55.510Z,90.00
2023-05-22T03:06:25.450Z,90.20
2023-05-22T03:08:53.462Z,90.00
2023-05-22T03:11:22.829Z,90.20
2023-05-22T03:13:50.860Z,90.20
2023-05-22T03:16:19.721Z,90.00
2023-05-22T03:18:47.862Z,90.00
2023-05-22T03:21:15.908Z,90.00
2023-05-22T03:23:45.809Z,90.00
2023-05-22T03:26:13.786Z,90.20
2023-05-22T03:28:43.167Z,90.10
2023-05-22T03:31:11.348Z,90.20
2023-05-22T03:33:39.424Z,90.30
2023-05-22T03:36:09.644Z,90.40
2023-05-22T03:38:37.650Z,90.60
2023-05-22T03:41:05.698Z,90.60
2023-05-22T03:43:33.679Z,90.40
2023-05-22T03:46:03.163Z,90.20
2023-05-22T03:48:31.378Z,90.00
2023-05-22T03:50:59.361Z,90.00
2023-05-22T03:53:27.376Z,90.10
2023-05-22T03:55:55.427Z,90.00
2023-05-22T03:58:25.528Z,89.30
2023-05-22T04:00:54.684Z,88.80
2023-05-22T04:03:24.168Z,88.60
2023-05-22T04:05:52.486Z,88.50
2023-05-22T04:08:20.752Z,88.20
2023-05-22T04:10:48.875Z,88.20
2023-05-22T04:13:18.073Z,87.40
2023-05-22T04:15:46.902Z,87.30
2023-05-22T04:18:15.533Z,87.00
2023-05-22T04:20:44.944Z,86.90
2023-05-22T04:23:13.322Z,86.80
2023-05-22T04:25:41.326Z,86.30
2023-05-22T04:28:09.489Z,85.70
2023-05-22T04:30:40.228Z,85.70
2023-05-22T04:33:08.730Z,85.60
2023-05-22T04:35:36.871Z,84.70
2023-05-22T04:38:06.254Z,84.50
2023-05-22T04:40:34.468Z,84.50
2023-05-22T04:43:03.535Z,84.60
2023-05-22T04:45:32.993Z,84.40
2023-05-22T04:48:02.780Z,84.20
2023-05-22T04:50:32.824Z,84.00
2023-05-22T04:53:04.220Z,84.00
2023-05-22T04:55:34.867Z,83.40
2023-05-22T04:58:03.251Z,83.10
2023-05-22T05:00:31.266Z,83.00
2023-05-22T05:03:00.548Z,82.70
2023-05-22T05:05:28.740Z,82.40
2023-05-22T05:07:56.768Z,81.70
2023-05-22T05:10:24.799Z,81.70
2023-05-22T05:12:54.231Z,81.40
2023-05-22T05:15:23.731Z,81.20
2023-05-22T05:17:51.869Z,80.10
2023-05-22T05:20:19.991Z,80.20
2023-05-22T05:22:48.055Z,79.80
2023-05-22T05:25:16.091Z,80.00
2023-05-22T05:27:44.109Z,79.70
2023-05-22T05:30:13.806Z,79.50
2023-05-22T05:32:41.938Z,79.50
2023-05-22T05:35:10.821Z,78.30
2023-05-22T05:37:38.846Z,78.20
2023-05-22T05:40:08.329Z,78.30
2023-05-22T05:42:36.749Z,77.90
2023-05-22T05:45:05.292Z,77.70
2023-05-22T05:47:34.922Z,77.70
2023-05-22T05:50:03.404Z,77.80
2023-05-22T05:52:32.765Z,77.00
2023-05-22T05:55:00.997Z,77.20
2023-05-22T05:57:30.252Z,77.30
2023-05-22T05:59:58.583Z,77.10
2023-05-22T06:02:26.673Z,77.00
2023-05-22T06:04:56.124Z,77.00
2023-05-22T06:07:24.306Z,76.60
2023-05-22T06:09:52.639Z,76.30
2023-05-22T06:12:21.351Z,76.00
2023-05-22T06:14:49.338Z,75.00
2023-05-22T06:17:17.564Z,75.20
2023-05-22T06:19:45.679Z,74.90
2023-05-22T06:22:15.051Z,74.80
2023-05-22T06:24:43.088Z,74.20
2023-05-22T06:27:11.194Z,73.60
2023-05-22T06:29:39.420Z,73.50
2023-05-22T06:32:08.098Z,73.10
2023-05-22T06:34:36.438Z,72.30
2023-05-22T06:37:04.496Z,71.80
2023-05-22T06:39:33.912Z,70.70
2023-05-22T06:42:01.941Z,70.50
2023-05-22T06:44:29.974Z,69.60
2023-05-22T06:46:59.540Z,69.50
2023-05-22T06:49:27.599Z,68.80
2023-05-22T06:51:55.721Z,68.30
2023-05-22T06:54:23.744Z,67.10
2023-05-22T06:56:53.193Z,66.10
2023-05-22T06:59:21.964Z,65.20
2023-05-22T07:01:50.250Z,64.70
2023-05-22T07:04:18.379Z,64.20
2023-05-22T07:06:46.444Z,64.20
2023-05-22T07:09:15.575Z,63.40
2023-05-22T07:11:44.026Z,63.20
2023-05-22T07:14:13.714Z,62.20
2023-05-22T07:16:41.980Z,61.90
2023-05-22T07:19:11.561Z,61.00
2023-05-22T07:21:39.654Z,60.80
2023-05-22T07:24:09.170Z,59.70
2023-05-22T07:26:37.467Z,59.60
2023-05-22T07:29:05.824Z,59.90
2023-05-22T07:31:35.496Z,59.50
2023-05-22T07:34:03.722Z,58.10
2023-05-22T07:36:32.628Z,57.50
2023-05-22T07:39:00.695Z,57.70
2023-05-22T07:41:28.774Z,57.40
2023-05-22T07:43:56.992Z,57.60
2023-05-22T07:46:25.146Z,57.80
2023-05-22T07:48:54.518Z,57.40
2023-05-22T07:51:22.623Z,55.40
2023-05-22T07:53:50.726Z,48.80
2023-05-22T07:56:18.778Z,44.90
2023-05-22T07:58:48.246Z,40.20
2023-05-22T08:01:16.666Z,38.20
2023-05-22T08:03:44.835Z,37.80
2023-05-22T08:06:15.966Z,37.30
2023-05-22T08:08:44.022Z,37.60
2023-05-22T08:11:12.079Z,36.70
2023-05-22T08:13:40.109Z,37.50
2023-05-22T08:16:08.834Z,37.20
2023-05-22T08:18:36.929Z,37.50
2023-05-22T08:21:05.088Z,34.70
2023-05-22T08:23:36.391Z,33.70
2023-05-22T08:26:04.605Z,31.60
2023-05-22T08:28:32.576Z,33.20
2023-05-22T08:31:00.606Z,32.10
2023-05-22T08:33:28.604Z,30.10
2023-05-22T08:35:56.677Z,28.70
2023-05-22T08:38:24.774Z,27.50
2023-05-22T08:40:55.777Z,26.40
2023-05-22T08:43:24.444Z,26.10
2023-05-22T08:46:00.902Z,24.50
2023-05-22T08:48:31.959Z,24.00
2023-05-22T08:51:04.248Z,24.10
2023-05-22T08:53:35.480Z,25.80
2023-05-22T08:56:07.229Z,26.80
2023-05-22T08:58:38.964Z,27.20
2023-05-22T09:01:07.775Z,27.60
2023-05-22T09:03:37.825Z,27.70
2023-05-22T09:06:11.207Z,27.70
2023-05-22T09:08:39.788Z,29.00
2023-05-22T09:11:10.849Z,28.10
2023-05-22T09:13:41.504Z,28.90
2023-05-22T09:16:10.702Z,28.50
2023-05-22T09:18:38.793Z,27.20
2023-05-22T09:21:21.568Z,25.60
2023-05-22T09:24:00.291Z,25.10
2023-05-22T09:26:30.049Z,24.30
2023-05-22T09:29:00.880Z,23.80
2023-05-22T09:31:30.198Z,22.90
2023-05-22T09:33:58.506Z,22.50
2023-05-22T09:36:32.384Z,22.70
2023-05-22T09:39:01.721Z,22.50
2023-05-22T09:41:34.764Z,22.40
2023-05-22T09:44:02.995Z,20.80
2023-05-22T09:46:31.060Z,20.30
2023-05-22T09:48:59.207Z,20.40
2023-05-22T09:51:27.550Z,21.10
2023-05-22T09:54:03.379Z,21.60
2023-05-22T09:56:39.716Z,22.30
2023-05-22T09:59:10.871Z,22.10
2023-05-22T10:01:40.478Z,23.20
2023-05-22T10:04:13.718Z,22.90
2023-05-22T10:06:43.087Z,22.10
2023-05-22T10:09:19.234Z,22.30
2023-05-22T10:11:49.892Z,23.20
2023-05-22T10:14:18.449Z,23.00
2023-05-22T10:16:46.974Z,23.50
2023-05-22T10:19:15.413Z,22.90
2023-05-22T10:21:43.637Z,23.20
2023-05-22T10:24:13.629Z,24.80
2023-05-22T10:26:43.257Z,25.80
2023-05-22T10:29:17.951Z,27.40
2023-05-22T10:31:53.706Z,28.20
2023-05-22T10:34:31.375Z,29.20
2023-05-22T10:37:17.553Z,31.10
2023-05-22T10:39:58.810Z,31.70
2023-05-22T10:42:31.088Z,32.50
2023-05-22T10:45:01.746Z,34.10
2023-05-22T10:47:29.810Z,35.20
2023-05-22T10:50:06.241Z,35.30
2023-05-22T10:52:34.354Z,35.60
2023-05-22T10:55:02.640Z,36.70
2023-05-22T10:57:35.344Z,37.30
2023-05-22T11:00:13.172Z,37.70
2023-05-22T11:02:43.182Z,37.50
2023-05-22T11:05:36.759Z,38.00
2023-05-22T11:08:11.975Z,38.40
2023-05-22T11:10:56.497Z,38.90
2023-05-22T11:13:29.252Z,39.80
2023-05-22T11:15:59.067Z,40.30
2023-05-22T11:18:30.600Z,40.80
2023-05-22T11:21:00.533Z,40.90
2023-05-22T11:23:28.735Z,41.20
2023-05-22T11:25:56.897Z,42.10
2023-05-22T11:28:25.831Z,42.00
2023-05-22T11:30:55.006Z,42.50
2023-05-22T11:33:25.175Z,42.50
2023-05-22T11:35:55.148Z,41.70
2023-05-22T11:38:23.468Z,41.10
2023-05-22T11:40:53.210Z,40.70
2023-05-22T11:43:31.517Z,41.20
2023-05-22T11:46:02.613Z,42.70
2023-05-22T11:48:32.116Z,43.40
2023-05-22T11:51:00.593Z,43.30
2023-05-22T11:53:28.693Z,43.00
2023-05-22T11:55:56.693Z,43.70
2023-05-22T11:58:28.841Z,44.20
2023-05-22T12:01:00.214Z,44.30
2023-05-22T12:03:28.289Z,43.90
2023-05-22T12:05:58.075Z,44.40
2023-05-22T12:08:26.735Z,43.90
2023-05-22T12:10:55.551Z,42.90
2023-05-22T12:13:27.924Z,42.50
2023-05-22T12:16:00.276Z,42.30
2023-05-22T12:18:28.543Z,42.20
2023-05-22T12:20:58.038Z,42.90
2023-05-22T12:23:26.902Z,42.00
2023-05-22T12:25:59.176Z,42.50
2023-05-22T12:28:27.354Z,43.40
2023-05-22T12:30:56.350Z,43.50
2023-05-22T12:33:28.813Z,43.30
2023-05-22T12:35:59.396Z,43.60
2023-05-22T12:38:28.641Z,44.20
2023-05-22T12:40:57.510Z,44.20
2023-05-22T12:43:26.562Z,44.40
2023-05-22T12:45:54.852Z,44.40
2023-05-22T12:48:23.033Z,43.80
2023-05-22T12:50:51.118Z,43.60
2023-05-22T12:53:20.809Z,43.40
2023-05-22T12:55:48.851Z,43.00
2023-05-22T12:58:16.856Z,43.00
2023-05-22T13:00:44.864Z,42.80
2023-05-22T13:03:13.324Z,42.70
2023-05-22T13:05:42.078Z,43.00
2023-05-22T13:08:10.284Z,43.50
2023-05-22T13:10:39.651Z,43.40
2023-05-22T13:13:07.635Z,43.60
2023-05-22T13:15:36.280Z,43.20
2023-05-22T13:18:04.771Z,42.80
2023-05-22T13:20:32.943Z,42.40
2023-05-22T13:23:00.959Z,42.60
2023-05-22T13:25:28.957Z,43.50
2023-05-22T13:27:59.638Z,44.30
2023-05-22T13:30:28.444Z,45.00
2023-05-22T13:32:56.647Z,45.40
2023-05-22T13:35:24.753Z,45.30
2023-05-22T13:37:52.768Z,44.90
2023-05-22T13:40:21.189Z,43.60
2023-05-22T13:42:49.411Z,43.60
2023-05-22T13:45:18.881Z,44.10
2023-05-22T13:47:47.046Z,44.10
2023-05-22T13:50:15.115Z,43.90
2023-05-22T13:52:43.192Z,44.10
2023-05-22T13:55:11.661Z,43.50
2023-05-22T13:57:40.667Z,43.90
2023-05-22T14:00:10.135Z,44.20
2023-05-22T14:02:39.629Z,44.40
2023-05-22T14:05:08.405Z,44.80
2023-05-22T14:07:36.441Z,45.40
2023-05-22T14:10:04.918Z,45.30
2023-05-22T14:12:32.923Z,45.60
2023-05-22T14:15:01.025Z,44.80
2023-05-22T14:17:29.389Z,45.00
2023-05-22T14:19:59.848Z,44.80
2023-05-22T14:22:27.834Z,44.50
2023-05-22T14:24:55.855Z,44.60
2023-05-22T14:27:23.835Z,44.70
2023-05-22T14:29:51.791Z,44.60
2023-05-22T14:32:19.974Z,44.70
2023-05-22T14:34:47.966Z,44.90
2023-05-22T14:37:18.971Z,44.20
2023-05-22T14:39:46.969Z,44.70
2023-05-22T14:42:14.984Z,44.90
2023-05-22T14:44:42.997Z,44.90
2023-05-22T14:47:10.963Z,44.90
2023-05-22T14:49:38.951Z,45.20
2023-05-22T14:52:06.983Z,45.50
2023-05-22T14:54:36.334Z,46.30
2023-05-22T14:57:04.482Z,46.10
2023-05-22T14:59:33.891Z,45.00
2023-05-22T15:02:01.934Z,45.20
2023-05-22T15:04:31.275Z,45.00
2023-05-22T15:06:59.392Z,45.10
2023-05-22T15:09:27.456Z,45.80
2023-05-22T15:11:56.846Z,46.00
2023-05-22T15:14:24.902Z,46.20
2023-05-22T15:16:52.885Z,46.80
2023-05-22T15:19:20.908Z,47.50
2023-05-22T15:21:48.912Z,47.50
2023-05-22T15:24:17.153Z,47.30
2023-05-22T15:26:45.201Z,47.20
2023-05-22T15:29:14.653Z,47.20
2023-05-22T15:31:42.710Z,47.00
2023-05-22T15:34:10.998Z,47.10
2023-05-22T15:36:40.315Z,46.70
2023-05-22T15:39:08.354Z,46.60
2023-05-22T15:41:36.401Z,46.80
2023-05-22T15:44:04.390Z,46.90
2023-05-22T15:46:33.803Z,46.70
2023-05-22T15:49:01.907Z,47.10
2023-05-22T15:51:31.033Z,47.10
2023-05-22T15:53:59.463Z,47.40
2023-05-22T15:56:27.458Z,47.60
2023-05-22T15:58:55.661Z,47.90
2023-05-22T16:01:23.649Z,47.90
2023-05-22T16:03:53.174Z,47.80
2023-05-22T16:06:23.247Z,47.80
2023-05-22T16:08:51.297Z,47.40
2023-05-22T16:11:19.368Z,47.30
2023-05-22T16:13:47.558Z,47.30
2023-05-22T16:16:16.473Z,47.80
2023-05-22T16:18:44.627Z,48.10
2023-05-22T16:21:13.969Z,48.50
2023-05-22T16:23:42.075Z,49.00
2023-05-22T16:26:10.182Z,48.80
2023-05-22T16:28:38.196Z,49.10
2023-05-22T16:31:07.096Z,48.80
2023-05-22T16:33:37.455Z,48.80
2023-05-22T16:36:06.141Z,49.10
2023-05-22T16:38:35.500Z,49.50
2023-05-22T16:41:03.541Z,49.80
2023-05-22T16:43:31.554Z,49.90
2023-05-22T16:45:59.554Z,50.30
2023-05-22T16:48:27.621Z,50.80
2023-05-22T16:50:55.659Z,51.10
2023-05-22T16:53:23.637Z,51.30
2023-05-22T16:55:53.032Z,51.30
2023-05-22T16:58:21.872Z,51.60
2023-05-22T17:00:50.184Z,51.80
2023-05-22T17:03:18.410Z,51.90
2023-05-22T17:05:47.451Z,52.30
2023-05-22T17:08:15.669Z,52.30
2023-05-22T17:10:43.699Z,52.50
2023-05-22T17:13:20.711Z,52.50
2023-05-22T17:15:49.492Z,52.80
2023-05-22T17:18:19.682Z,53.20
2023-05-22T17:20:47.802Z,53.20
2023-05-22T17:23:15.998Z,52.80
2023-05-22T17:25:46.701Z,52.50
2023-05-22T17:28:16.682Z,53.30
2023-05-22T17:30:46.105Z,53.80
2023-05-22T17:33:14.313Z,54.50
2023-05-22T17:35:43.410Z,54.70
2023-05-22T17:38:11.395Z,55.20
2023-05-22T17:40:44.710Z,55.80
2023-05-22T17:43:14.633Z,56.40
2023-05-22T17:45:44.621Z,56.70
2023-05-22T17:48:14.600Z,57.40
2023-05-22T17:50:42.926Z,57.50
2023-05-22T17:53:10.985Z,57.80
2023-05-22T17:55:39.106Z,58.30
2023-05-22T17:58:07.397Z,58.70
2023-05-22T18:00:35.440Z,59.10
2023-05-22T18:03:04.970Z,59.30
2023-05-22T18:05:33.037Z,59.70
2023-05-22T18:08:01.337Z,59.90
2023-05-22T18:10:29.329Z,60.10
2023-05-22T18:12:57.521Z,60.40
2023-05-22T18:15:25.517Z,60.80
2023-05-22T18:17:53.552Z,61.10
2023-05-22T18:20:22.909Z,61.30
2023-05-22T18:22:50.898Z,61.70
2023-05-22T18:25:18.885Z,61.70
2023-05-22T18:27:46.985Z,62.00
2023-05-22T18:30:15.689Z,62.00
2023-05-22T18:32:43.711Z,62.40
2023-05-22T18:35:11.758Z,62.50
2023-05-22T18:37:41.470Z,62.90
2023-05-22T18:40:10.978Z,62.90
2023-05-22T18:42:39.090Z,63.30
2023-05-22T18:45:08.408Z,63.40
2023-05-22T18:47:36.441Z,63.50
2023-05-22T18:50:04.567Z,63.90
2023-05-22T18:52:32.642Z,63.90
2023-05-22T18:55:01.999Z,64.30
2023-05-22T18:57:30.020Z,64.80
2023-05-22T18:59:57.978Z,64.70
2023-05-22T19:02:26.161Z,64.80
2023-05-22T19:04:54.252Z,65.00
2023-05-22T19:07:22.289Z,65.30
2023-05-22T19:09:50.532Z,65.50
2023-05-22T19:12:19.948Z,65.60
2023-05-22T19:14:49.660Z,66.10
2023-05-22T19:17:17.669Z,66.10
2023-05-22T19:19:46.583Z,66.50
2023-05-22T19:22:17.228Z,66.40
2023-05-22T19:24:45.949Z,66.90
2023-05-22T19:27:14.037Z,66.90
2023-05-22T19:29:43.353Z,67.00
2023-05-22T19:32:11.356Z,67.30
2023-05-22T19:34:40.024Z,67.60
2023-05-22T19:37:09.369Z,67.70
2023-05-22T19:39:37.387Z,68.20
2023-05-22T19:42:08.141Z,68.30
2023-05-22T19:44:36.204Z,68.40
2023-05-22T19:47:05.865Z,68.60
2023-05-22T19:49:37.058Z,68.80
2023-05-22T19:52:05.796Z,69.10
2023-05-22T19:54:33.867Z,69.20
2023-05-22T19:57:01.889Z,69.50
2023-05-22T19:59:29.849Z,69.70
2023-05-22T20:01:57.827Z,70.20
2023-05-22T20:04:27.484Z,70.40
2023-05-22T20:06:58.607Z,71.30
2023-05-22T20:09:26.985Z,71.00
2023-05-22T20:11:55.106Z,71.60
2023-05-22T20:14:23.080Z,71.80
2023-05-22T20:16:51.163Z,72.00
2023-05-22T20:19:19.381Z,72.30
2023-05-22T20:21:49.990Z,72.60
2023-05-22T20:24:18.948Z,72.60
2023-05-22T20:26:47.290Z,72.90
2023-05-22T20:29:15.734Z,73.20
2023-05-22T20:31:43.797Z,73.70
2023-05-22T20:34:11.823Z,73.50
2023-05-22T20:36:40.878Z,74.10
2023-05-22T20:39:11.909Z,74.50
2023-05-22T20:41:39.980Z,74.70
2023-05-22T20:44:08.306Z,74.90
2023-05-22T20:46:36.447Z,75.20
2023-05-22T20:49:05.187Z,75.40
2023-05-22T20:51:33.618Z,75.20
2023-05-22T20:54:01.902Z,75.80
2023-05-22T20:56:31.332Z,76.50
2023-05-22T20:58:59.319Z,76.90
2023-05-22T21:01:27.327Z,77.00
2023-05-22T21:03:56.488Z,77.40
2023-05-22T21:06:24.916Z,77.70
2023-05-22T21:08:54.303Z,78.00
2023-05-22T21:11:22.397Z,78.40
2023-05-22T21:13:51.763Z,78.50
2023-05-22T21:16:19.791Z,78.70
2023-05-22T21:18:47.902Z,79.10
2023-05-22T21:21:16.381Z,79.30
2023-05-22T21:23:44.843Z,79.70
2023-05-22T21:26:12.821Z,79.90
2023-05-22T21:28:40.958Z,80.00
2023-05-22T21:31:10.455Z,80.20
2023-05-22T21:33:38.431Z,80.50
2023-05-22T21:36:06.764Z,81.30
2023-05-22T21:38:34.778Z,80.80
2023-05-22T21:41:02.735Z,81.30
2023-05-22T21:43:30.693Z,81.30
2023-05-22T21:45:58.696Z,81.60
2023-05-22T21:48:28.456Z,81.80
2023-05-22T21:50:56.468Z,82.00
2023-05-22T21:53:24.493Z,82.20
2023-05-22T21:55:52.744Z,82.40
2023-05-22T21:58:20.768Z,82.60
2023-05-22T22:00:48.858Z,82.90
2023-05-22T22:03:16.986Z,82.80
2023-05-22T22:05:46.385Z,83.20
2023-05-22T22:08:14.451Z,83.20
2023-05-22T22:10:42.592Z,83.20
2023-05-22T22:13:10.602Z,83.60
2023-05-22T22:15:39.157Z,83.40
2023-05-22T22:18:07.350Z,83.80
2023-05-22T22:20:44.438Z,84.00
2023-05-22T22:23:15.214Z,84.60
2023-05-22T22:25:43.206Z,84.50
2023-05-22T22:28:11.412Z,84.50
2023-05-22T22:30:39.799Z,84.20
2023-05-22T22:33:08.127Z,84.20
2023-05-22T22:35:36.171Z,84.30
2023-05-22T22:38:04.258Z,84.50
2023-05-22T22:40:33.627Z,84.60
2023-05-22T22:43:01.620Z,84.80
2023-05-22T22:45:29.700Z,84.80
2023-05-22T22:47:57.806Z,85.00
2023-05-22T22:50:25.831Z,85.10
2023-05-22T22:52:53.917Z,85.50
2023-05-22T22:55:22.191Z,85.50
2023-05-22T22:57:51.965Z,86.00
2023-05-22T23:00:20.622Z,86.50
2023-05-22T23:02:48.672Z,86.90
2023-05-22T23:05:20.209Z,87.50
2023-05-22T23:07:49.140Z,87.60
2023-05-22T23:10:17.153Z,87.80
2023-05-22T23:12:45.268Z,88.10
2023-05-22T23:15:16.243Z,88.60
2023-05-22T23:17:44.427Z,88.50
2023-05-22T23:20:12.773Z,88.80
2023-05-22T23:22:40.833Z,89.10
2023-05-22T23:25:09.410Z,88.70
2023-05-22T23:27:37.547Z,89.10
2023-05-22T23:30:06.822Z,89.30
2023-05-22T23:32:36.326Z,89.50
2023-05-22T23:35:05.856Z,89.90
2023-05-22T23:37:33.853Z,89.90
2023-05-22T23:40:01.954Z,90.00
2023-05-22T23:42:29.931Z,90.10
2023-05-22T23:44:57.946Z,90.20
2023-05-22T23:47:25.918Z,90.20
2023-05-22T23:49:56.648Z,90.20
2023-05-22T23:52:24.792Z,90.20
2023-05-22T23:54:52.788Z,90.20
2023-05-22T23:57:20.842Z,90.40
2023-05-22T23:59:48.980Z,90.60
